Time;durP1;ratioP1;P1;durP2;ratioP2;P2;SDS_P1;SDS_P2;PMS_P1;PMS_P2;Temp;Humidity;BMP_temperature;BMP_pressure;BME280_temperature;BME280_humidity;BME280_pressure;Samples;Min_cycle;Max_cycle;Signal;HPM_P1;HPM_P2
2023/04/22 00:02:01;;;;;;;32.22;22.08;;;16.40;95.50;;;;;;5092561;28;20035;-75
2023/04/22 00:05:06;;;;;;;31.95;21.60;;;16.40;95.70;;;;;;5092649;28;20055;-75
2023/04/22 00:08:10;;;;;;;32.30;21.98;;;16.50;95.60;;;;;;5092175;28;20035;-75
2023/04/22 00:11:14;;;;;;;29.67;21.45;;;16.50;95.50;;;;;;5092203;28;20055;-75
2023/04/22 00:14:18;;;;;;;30.15;21.33;;;16.50;95.50;;;;;;5091429;28;20047;-75
2023/04/22 00:17:23;;;;;;;39.40;22.58;;;16.50;95.80;;;;;;5092233;28;20387;-74
2023/04/22 00:20:28;;;;;;;37.08;22.88;;;16.50;95.50;;;;;;5092064;28;20047;-75
2023/04/22 00:23:32;;;;;;;32.75;22.92;;;16.50;95.60;;;;;;5090950;28;20054;-75
2023/04/22 00:26:36;;;;;;;31.33;20.75;;;16.20;96.00;;;;;;5091226;28;20051;-75
2023/04/22 00:29:40;;;;;;;30.98;22.20;;;16.20;96.10;;;;;;5091782;28;20051;-75
2023/04/22 00:32:44;;;;;;;40.47;24.75;;;16.10;96.30;;;;;;5090964;28;20051;-75
2023/04/22 00:35:48;;;;;;;37.40;25.08;;;16.00;96.40;;;;;;5091722;28;20106;-74
2023/04/22 00:38:52;;;;;;;34.42;25.08;;;16.00;96.80;;;;;;5092122;28;20051;-75
2023/04/22 00:41:57;;;;;;;45.40;26.60;;;16.00;96.80;;;;;;5091621;28;20066;-75
2023/04/22 00:45:01;;;;;;;41.60;25.85;;;16.00;96.90;;;;;;5090511;28;20031;-75
2023/04/22 00:48:06;;;;;;;35.92;23.58;;;15.90;96.80;;;;;;5093757;28;20497;-74
2023/04/22 00:51:09;;;;;;;32.45;24.13;;;15.90;96.80;;;;;;5091979;28;20055;-74
2023/04/22 00:54:13;;;;;;;43.65;24.83;;;15.80;96.90;;;;;;5092086;28;20039;-75
2023/04/22 00:57:18;;;;;;;34.72;23.60;;;15.70;97.00;;;;;;5091158;28;20514;-74
2023/04/22 01:00:26;;;;;;;35.83;24.52;;;15.80;97.10;;;;;;5091647;28;20058;-75
2023/04/22 01:03:31;;;;;;;38.28;24.60;;;15.80;97.10;;;;;;5091593;28;20375;-75
2023/04/22 01:06:37;;;;;;;31.77;23.85;;;15.80;97.30;;;;;;5091124;28;20043;-75
2023/04/22 01:09:42;;;;;;;36.15;25.08;;;15.70;97.40;;;;;;5090657;28;20051;-75
2023/04/22 01:12:46;;;;;;;37.20;26.08;;;15.70;97.60;;;;;;5091156;28;20043;-75
2023/04/22 01:15:52;;;;;;;38.17;25.10;;;15.70;97.70;;;;;;5090408;28;20047;-75
2023/04/22 01:18:56;;;;;;;35.15;23.65;;;15.60;97.60;;;;;;5090480;28;20051;-75
2023/04/22 01:22:02;;;;;;;37.15;24.33;;;15.60;97.80;;;;;;5089974;28;20047;-76
2023/04/22 01:25:10;;;;;;;31.52;21.70;;;15.60;97.60;;;;;;5090812;28;20055;-75
2023/04/22 01:28:15;;;;;;;34.70;22.33;;;15.90;97.00;;;;;;5091034;28;20055;-75
2023/04/22 01:31:19;;;;;;;35.55;23.23;;;15.40;97.30;;;;;;5090121;28;20514;-75
2023/04/22 01:34:23;;;;;;;35.17;22.98;;;15.20;97.40;;;;;;5090587;28;20040;-75
2023/04/22 01:37:28;;;;;;;48.40;28.50;;;15.30;97.30;;;;;;5090567;28;20050;-75
2023/04/22 01:40:33;;;;;;;35.30;23.10;;;15.20;97.30;;;;;;5089954;28;20415;-75
2023/04/22 01:43:39;;;;;;;34.33;22.20;;;12.10;96.60;;;;;;5090088;28;20062;-75
2023/04/22 01:46:43;;;;;;;32.95;21.73;;;16.10;97.70;;;;;;5090315;28;20043;-75
2023/04/22 01:49:47;;;;;;;30.45;21.30;;;;;;;;;;5090623;28;20051;-75
2023/04/22 01:52:51;;;;;;;26.75;19.27;;;;;;;;;;5090860;28;20054;-75
2023/04/22 01:55:55;;;;;;;31.52;19.35;;;11.70;97.10;;;;;;5090914;28;20043;-75
2023/04/22 01:58:59;;;;;;;29.45;19.00;;;13.80;97.80;;;;;;5090682;28;20055;-75
2023/04/22 02:02:06;;;;;;;31.00;18.77;;;;;;;;;;5090187;28;20414;-75
2023/04/22 02:05:10;;;;;;;28.73;19.27;;;;;;;;;;5089399;28;20047;-75
2023/04/22 02:08:15;;;;;;;31.63;18.27;;;;;;;;;;5089899;28;20039;-75
2023/04/22 02:11:21;;;;;;;27.58;19.20;;;;;;;;;;5089717;28;20054;-75
2023/04/22 02:14:26;;;;;;;28.77;18.15;;;;;;;;;;5090499;28;20039;-75
2023/04/22 02:17:30;;;;;;;25.83;17.73;;;15.60;98.20;;;;;;5090663;28;20218;-75
2023/04/22 02:20:34;;;;;;;26.35;18.05;;;;;;;;;;5090549;28;20047;-75
2023/04/22 02:23:38;;;;;;;30.67;18.80;;;14.50;98.20;;;;;;5090638;28;20051;-75
2023/04/22 02:26:43;;;;;;;24.98;17.42;;;;;;;;;;5090406;28;20059;-76
2023/04/22 02:29:47;;;;;;;32.20;18.05;;;;;;;;;;5089668;28;20043;-75
2023/04/22 02:32:53;;;;;;;28.05;17.45;;;14.20;97.70;;;;;;5089546;28;20067;-75
2023/04/22 02:35:57;;;;;;;31.90;18.00;;;14.40;98.10;;;;;;5089613;28;20090;-75
2023/04/22 02:39:05;;;;;;;27.40;18.63;;;;;;;;;;5089385;28;20043;-75
2023/04/22 02:42:09;;;;;;;26.50;16.65;;;;;;;;;;5090471;28;20513;-76
2023/04/22 02:45:13;;;;;;;23.17;16.75;;;;;;;;;;5090255;28;20102;-75
2023/04/22 02:48:17;;;;;;;27.80;17.50;;;;;;;;;;5089799;28;20047;-75
2023/04/22 02:51:22;;;;;;;29.48;17.90;;;15.10;98.30;;;;;;5093822;28;20054;-75
2023/04/22 02:54:26;;;;;;;24.60;17.20;;;;;;;;;;5092836;28;20387;-75
2023/04/22 02:57:30;;;;;;;29.75;18.98;;;14.50;98.10;;;;;;5093226;28;20051;-75
2023/04/22 03:00:34;;;;;;;27.38;18.63;;;14.60;98.30;;;;;;5093723;28;20040;-75
2023/04/22 03:03:39;;;;;;;28.95;17.73;;;12.10;97.20;;;;;;5092819;28;20051;-75
2023/04/22 03:06:45;;;;;;;27.77;16.98;;;;;;;;;;5092919;28;20051;-75
2023/04/22 03:09:49;;;;;;;25.48;15.63;;;17.60;98.30;;;;;;5093556;28;20047;-75
2023/04/22 03:12:54;;;;;;;25.13;15.43;;;;;;;;;;5092653;28;20407;-75
2023/04/22 03:15:58;;;;;;;22.67;15.02;;;;;;;;;;5092576;28;20059;-74
2023/04/22 03:19:02;;;;;;;24.80;15.93;;;14.50;97.80;;;;;;5092584;28;20054;-74
2023/04/22 03:22:07;;;;;;;24.60;15.40;;;;;;;;;;5092309;28;20039;-75
2023/04/22 03:25:11;;;;;;;22.00;14.00;;;13.90;97.60;;;;;;5092022;28;20047;-75
2023/04/22 03:28:15;;;;;;;20.40;12.70;;;;;;;;;;5092287;28;20063;-74
2023/04/22 03:31:19;;;;;;;21.52;12.77;;;;;;;;;;5092009;28;20371;-75
2023/04/22 03:34:25;;;;;;;23.50;12.38;;;;;;;;;;5091902;28;20055;-75
2023/04/22 03:37:30;;;;;;;16.17;11.93;;;13.80;97.50;;;;;;5092328;28;20059;-75
2023/04/22 03:40:34;;;;;;;19.27;10.85;;;;;;;;;;5092090;28;20055;-75
2023/04/22 03:43:43;;;;;;;20.40;11.32;;;;;;;;;;5091893;28;20055;-75
2023/04/22 03:46:48;;;;;;;19.25;11.23;;;;;;;;;;5092067;28;20043;-75
2023/04/22 03:49:57;;;;;;;22.23;12.40;;;;;;;;;;5092049;28;20392;-75
2023/04/22 03:53:01;;;;;;;20.10;10.98;;;;;;;;;;5091465;28;20055;-75
2023/04/22 03:56:05;;;;;;;22.05;11.57;;;13.80;97.50;;;;;;5091586;28;20532;-75
2023/04/22 03:59:14;;;;;;;16.30;11.32;;;;;;;;;;5091526;28;20043;-75
2023/04/22 04:02:18;;;;;;;20.15;12.15;;;;;;;;;;5091454;28;20639;-75
2023/04/22 04:05:23;;;;;;;16.90;11.05;;;;;;;;;;5091693;28;20047;-75
2023/04/22 04:08:27;;;;;;;21.73;12.10;;;;;;;;;;5092176;28;20043;-75
2023/04/22 04:11:31;;;;;;;21.80;12.48;;;;;;;;;;5092230;28;20510;-75
2023/04/22 04:14:35;;;;;;;19.92;11.20;;;13.80;97.50;;;;;;5091581;28;20051;-75
2023/04/22 04:17:41;;;;;;;20.17;11.25;;;15.10;97.80;;;;;;5091199;28;20047;-74
2023/04/22 04:20:45;;;;;;;16.02;11.43;;;16.70;98.50;;;;;;5092101;28;20039;-75
2023/04/22 04:23:50;;;;;;;19.17;10.82;;;;;;;;;;5091005;28;20048;-76
2023/04/22 04:26:57;;;;;;;20.58;11.88;;;13.50;97.90;;;;;;5091223;28;20067;-74
2023/04/22 04:30:08;;;;;;;;;;;13.50;97.90;;;;;;5091427;28;20043;-74
2023/04/22 04:33:22;;;;;;;22.52;11.80;;;13.50;98.10;;;;;;5091288;28;19915;-75
2023/04/22 04:36:28;;;;;;;22.13;12.48;;;;;;;;;;5091124;28;20055;-75
2023/04/22 04:39:36;;;;;;;23.65;13.23;;;;;;;;;;5091328;28;20079;-75
2023/04/22 04:42:41;;;;;;;20.98;12.15;;;;;;;;;;5091115;28;20039;-76
2023/04/22 04:45:51;;;;;;;26.52;12.60;;;13.60;98.00;;;;;;5090964;28;20102;-75
2023/04/22 04:49:03;;;;;;;28.20;11.30;;;13.60;98.00;;;;;;5091199;28;20043;-75
2023/04/22 04:52:12;;;;;;;25.30;11.02;;;;;;;;;;5090424;28;20067;-74
2023/04/22 04:55:17;;;;;;;19.75;11.43;;;;;;;;;;5090743;28;20039;-75
2023/04/22 04:58:21;;;;;;;24.33;11.40;;;11.90;96.50;;;;;;5090681;28;20063;-75
2023/04/22 05:01:35;;;;;;;20.58;10.90;;;;;;;;;;5091610;28;20047;-75
2023/04/22 05:04:43;;;;;;;27.73;12.80;;;14.90;96.90;;;;;;5090644;28;20051;-75
2023/04/22 05:07:47;;;;;;;25.75;11.32;;;14.90;96.80;;;;;;5090449;28;20035;-75
2023/04/22 05:10:53;;;;;;;19.33;10.60;;;15.00;96.90;;;;;;5090930;28;20043;-75
2023/04/22 05:13:56;;;;;;;17.83;10.40;;;17.30;95.90;;;;;;5090377;28;20051;-76
2023/04/22 05:17:07;;;;;;;23.67;10.52;;;16.10;95.10;;;;;;5091119;28;20039;-75
2023/04/22 05:20:12;;;;;;;21.58;12.88;;;16.30;95.20;;;;;;5090573;28;20051;-75
2023/04/22 05:23:17;;;;;;;18.30;11.63;;;16.90;94.50;;;;;;5090596;28;20039;-75
2023/04/22 05:26:23;;;;;;;23.85;11.75;;;18.20;92.70;;;;;;5090209;28;20055;-75
2023/04/22 05:29:28;;;;;;;22.52;12.45;;;19.40;90.70;;;;;;5090481;28;20051;-75
2023/04/22 05:32:32;;;;;;;26.05;13.27;;;20.10;89.20;;;;;;5090185;28;20051;-76
2023/04/22 05:35:37;;;;;;;21.85;12.98;;;20.90;87.70;;;;;;5090395;28;20145;-76
2023/04/22 05:38:41;;;;;;;27.15;14.80;;;21.10;86.60;;;;;;5090445;28;20047;-75
2023/04/22 05:41:45;;;;;;;26.25;18.15;;;20.80;86.50;;;;;;5091185;28;20043;-76
2023/04/22 05:44:50;;;;;;;30.65;18.80;;;20.50;87.10;;;;;;5090790;28;20055;-76
2023/04/22 05:47:54;;;;;;;30.67;20.17;;;20.10;88.50;;;;;;5089915;28;20058;-76
2023/04/22 05:50:59;;;;;;;24.85;14.60;;;20.00;89.10;;;;;;5090121;28;20506;-76
2023/04/22 05:54:06;;;;;;;35.10;16.52;;;19.90;89.50;;;;;;5090009;28;20050;-76
2023/04/22 05:57:10;;;;;;;22.23;14.10;;;19.80;90.10;;;;;;5090363;28;20051;-75
2023/04/22 06:00:15;;;;;;;22.42;16.05;;;19.70;90.50;;;;;;5089980;28;20490;-75
2023/04/22 06:03:26;;;;;;;26.10;15.23;;;19.60;90.20;;;;;;5089963;28;20059;-75
2023/04/22 06:06:31;;;;;;;41.65;18.60;;;19.60;90.70;;;;;;5089800;28;20094;-75
2023/04/22 06:09:35;;;;;;;27.10;17.60;;;19.70;90.70;;;;;;5089679;28;20070;-75
2023/04/22 06:12:39;;;;;;;35.97;20.13;;;20.00;90.80;;;;;;5090057;28;20415;-76
2023/04/22 06:15:43;;;;;;;29.35;18.60;;;20.20;90.60;;;;;;5090643;28;20476;-76
2023/04/22 06:18:47;;;;;;;25.65;15.90;;;20.50;90.40;;;;;;5089671;28;20391;-75
2023/04/22 06:21:52;;;;;;;26.67;16.52;;;20.80;88.40;;;;;;5089557;28;20066;-75
2023/04/22 06:24:56;;;;;;;25.77;16.77;;;21.00;86.60;;;;;;5091652;28;20063;-60
2023/04/22 06:28:00;;;;;;;23.55;15.02;;;21.10;86.80;;;;;;5093758;28;20044;-60
2023/04/22 06:31:04;;;;;;;20.60;14.43;;;21.30;85.50;;;;;;5093367;28;20055;-60
2023/04/22 06:34:08;;;;;;;19.80;14.35;;;21.40;85.00;;;;;;5093046;28;20047;-61
2023/04/22 06:37:13;;;;;;;22.98;13.23;;;21.50;83.00;;;;;;5093368;28;20043;-61
2023/04/22 06:40:17;;;;;;;22.70;13.80;;;21.60;84.00;;;;;;5093511;28;20506;-60
2023/04/22 06:43:50;;;;;;;26.38;11.43;;;21.90;83.10;;;;;;5097584;28;20395;-60
2023/04/22 06:47:25;;;;;;;24.33;12.98;;;22.20;81.50;;;;;;5093411;28;20387;-60
2023/04/22 06:50:37;;;;;;;21.15;11.40;;;22.50;80.70;;;;;;5093035;28;20056;-60
2023/04/22 06:53:42;;;;;;;17.92;12.73;;;22.50;79.80;;;;;;5092741;28;20434;-59
2023/04/22 06:56:47;;;;;;;25.50;15.50;;;22.70;80.40;;;;;;5092834;28;20055;-60
2023/04/22 06:59:52;;;;;;;24.15;14.75;;;22.90;80.60;;;;;;5092771;28;20051;-61
2023/04/22 07:02:56;;;;;;;24.08;15.20;;;22.80;79.40;;;;;;5093020;28;20039;-60
2023/04/22 07:06:00;;;;;;;27.67;14.77;;;22.40;79.40;;;;;;5092911;28;20054;-59
2023/04/22 07:09:07;;;;;;;20.95;14.25;;;22.50;79.80;;;;;;5092720;28;20054;-64
2023/04/22 07:12:11;;;;;;;20.95;13.82;;;22.80;79.30;;;;;;5092261;28;20126;-61
2023/04/22 07:15:15;;;;;;;17.33;12.38;;;22.80;78.60;;;;;;5092948;28;20039;-61
2023/04/22 07:18:19;;;;;;;24.50;12.93;;;23.00;78.40;;;;;;5093154;28;20047;-61
2023/04/22 07:21:24;;;;;;;20.77;11.18;;;23.10;77.40;;;;;;5093286;28;20043;-62
2023/04/22 07:24:28;;;;;;;20.42;11.60;;;23.30;76.90;;;;;;5093022;28;20108;-61
2023/04/22 07:27:33;;;;;;;15.88;11.23;;;23.50;76.40;;;;;;5093148;28;20063;-62
2023/04/22 07:30:37;;;;;;;22.45;11.23;;;23.70;76.90;;;;;;5092944;28;20601;-62
2023/04/22 07:33:41;;;;;;;15.40;9.63;;;23.70;76.00;;;;;;5093260;28;20043;-62
2023/04/22 07:36:45;;;;;;;25.83;11.27;;;23.40;75.30;;;;;;5092580;28;20047;-61
2023/04/22 07:39:49;;;;;;;16.80;9.07;;;23.30;75.20;;;;;;5092949;28;20043;-60
2023/04/22 07:42:53;;;;;;;19.00;9.95;;;23.50;76.00;;;;;;5092769;28;20043;-60
2023/04/22 07:45:57;;;;;;;12.40;8.20;;;23.80;75.50;;;;;;5092783;28;20050;-60
2023/04/22 07:49:01;;;;;;;9.15;7.15;;;23.90;73.50;;;;;;5092335;28;20051;-60
2023/04/22 07:52:05;;;;;;;8.73;7.05;;;23.90;74.20;;;;;;5091974;28;20062;-59
2023/04/22 07:55:09;;;;;;;12.98;6.97;;;24.00;72.80;;;;;;5092364;28;20046;-59
2023/04/22 07:58:13;;;;;;;10.23;6.40;;;24.00;74.10;;;;;;5092400;28;20043;-60
2023/04/22 08:01:17;;;;;;;7.00;4.93;;;24.20;73.70;;;;;;5092704;28;20047;-60
2023/04/22 08:04:22;;;;;;;6.80;4.78;;;24.20;69.90;;;;;;5092276;28;20395;-59
2023/04/22 08:07:27;;;;;;;9.18;5.88;;;24.30;70.30;;;;;;5092509;28;20043;-60
2023/04/22 08:10:31;;;;;;;16.77;7.95;;;24.40;70.70;;;;;;5092320;28;20058;-60
2023/04/22 08:13:35;;;;;;;13.73;7.00;;;24.50;71.20;;;;;;5092345;28;20510;-63
2023/04/22 08:16:39;;;;;;;9.38;6.13;;;24.50;72.20;;;;;;5092121;28;20047;-62
2023/04/22 08:19:44;;;;;;;6.28;4.72;;;24.50;71.10;;;;;;5092026;28;20047;-61
2023/04/22 08:22:50;;;;;;;8.07;5.65;;;24.60;70.20;;;;;;5091772;28;20031;-61
2023/04/22 08:25:54;;;;;;;8.43;5.70;;;24.60;69.70;;;;;;5091748;28;20651;-61
2023/04/22 08:28:57;;;;;;;10.13;5.68;;;24.30;69.60;;;;;;5091895;28;20486;-62
2023/04/22 08:32:02;;;;;;;7.43;4.82;;;24.10;70.30;;;;;;5091576;28;20065;-61
2023/04/22 08:35:06;;;;;;;7.18;5.25;;;24.00;70.60;;;;;;5091585;28;20135;-61
2023/04/22 08:38:10;;;;;;;9.65;5.55;;;24.00;70.10;;;;;;5091331;28;20050;-61
2023/04/22 08:41:14;;;;;;;8.70;5.03;;;24.10;69.80;;;;;;5091321;28;20043;-61
2023/04/22 08:44:20;;;;;;;6.78;5.30;;;24.10;70.30;;;;;;5091240;28;20047;-61
2023/04/22 08:47:25;;;;;;;6.32;5.35;;;24.20;69.20;;;;;;5090663;28;20066;-61
2023/04/22 08:50:31;;;;;;;8.40;5.57;;;24.30;69.60;;;;;;5091450;28;20383;-61
2023/04/22 08:53:36;;;;;;;13.00;5.55;;;24.30;69.10;;;;;;5091210;28;20399;-60
2023/04/22 08:56:43;;;;;;;6.53;5.00;;;24.30;69.40;;;;;;5091036;28;20043;-61
2023/04/22 08:59:48;;;;;;;6.90;4.93;;;24.30;69.40;;;;;;5091062;28;20039;-61
2023/04/22 09:02:53;;;;;;;6.03;4.18;;;24.40;69.60;;;;;;5091131;28;20043;-61
2023/04/22 09:06:00;;;;;;;9.13;4.55;;;24.50;68.40;;;;;;5091384;28;20039;-62
2023/04/22 09:09:04;;;;;;;5.20;4.15;;;24.50;67.90;;;;;;5091200;28;20051;-62
2023/04/22 09:12:08;;;;;;;5.60;4.55;;;24.40;67.50;;;;;;5090908;28;20051;-62
2023/04/22 09:15:12;;;;;;;12.32;4.40;;;24.30;67.10;;;;;;5091175;28;20510;-62
2023/04/22 09:18:20;;;;;;;7.25;4.05;;;24.20;67.40;;;;;;5091300;28;20050;-61
2023/04/22 09:21:27;;;;;;;6.30;3.90;;;24.20;68.30;;;;;;5090792;28;20047;-61
2023/04/22 09:24:31;;;;;;;10.20;4.25;;;24.40;69.00;;;;;;5090604;28;20050;-60
2023/04/22 09:27:35;;;;;;;8.43;4.32;;;24.50;66.10;;;;;;5090929;28;20498;-62
2023/04/22 09:30:39;;;;;;;5.80;3.60;;;24.50;66.50;;;;;;5090800;28;20114;-61
2023/04/22 09:33:51;;;;;;;4.05;3.38;;;24.50;66.50;;;;;;5090676;28;20051;-61
2023/04/22 09:36:55;;;;;;;3.38;2.80;;;24.60;67.10;;;;;;5090576;28;20514;-61
2023/04/22 09:39:58;;;;;;;6.75;3.85;;;24.60;66.00;;;;;;5090886;28;20059;-62
2023/04/22 09:43:05;;;;;;;8.18;3.65;;;24.60;65.00;;;;;;5090896;28;20059;-61
2023/04/22 09:46:09;;;;;;;9.20;4.32;;;24.30;65.20;;;;;;5090729;28;20047;-62
2023/04/22 09:49:15;;;;;;;6.65;3.45;;;24.10;65.60;;;;;;5090528;28;20047;-61
2023/04/22 09:52:25;;;;;;;5.85;3.22;;;24.00;64.60;;;;;;5090338;28;20565;-62
2023/04/22 09:55:32;;;;;;;7.85;4.30;;;24.10;66.00;;;;;;5090559;28;20039;-62
2023/04/22 09:58:41;;;;;;;8.68;4.03;;;24.20;65.60;;;;;;5091242;28;20039;-62
2023/04/22 10:01:46;;;;;;;7.20;4.38;;;24.30;66.50;;;;;;5094539;28;20035;-62
2023/04/22 10:04:50;;;;;;;6.65;3.90;;;24.50;65.90;;;;;;5094519;28;20075;-61
2023/04/22 10:07:54;;;;;;;6.78;3.50;;;24.70;66.10;;;;;;5094368;28;20039;-61
2023/04/22 10:10:58;;;;;;;5.18;3.20;;;24.90;65.80;;;;;;5094315;28;20051;-61
2023/04/22 10:14:02;;;;;;;5.13;4.00;;;25.00;65.20;;;;;;5094187;28;20039;-62
2023/04/22 10:17:06;;;;;;;3.67;3.25;;;25.10;64.10;;;;;;5094122;28;20404;-62
2023/04/22 10:20:16;;;;;;;4.18;3.65;;;25.10;63.90;;;;;;5094266;28;20399;-61
2023/04/22 10:23:22;;;;;;;6.07;3.58;;;25.20;64.40;;;;;;5094308;28;20062;-62
2023/04/22 10:26:42;;;;;;;10.55;4.57;;;25.30;64.90;;;;;;5094082;28;20182;-61
2023/04/22 10:29:46;;;;;;;6.80;3.88;;;25.40;64.30;;;;;;5093873;28;20043;-61
2023/04/22 10:32:52;;;;;;;4.80;3.92;;;25.30;65.20;;;;;;5093795;28;20063;-62
2023/04/22 10:36:14;;;;;;;6.43;3.90;;;25.30;64.40;;;;;;5094217;28;20043;-62
2023/04/22 10:39:20;;;;;;;16.05;5.97;;;25.40;64.20;;;;;;5094091;28;20047;-62
2023/04/22 10:42:27;;;;;;;5.53;3.55;;;25.40;63.10;;;;;;5093988;28;20041;-61
2023/04/22 10:45:31;;;;;;;5.90;4.00;;;25.40;63.30;;;;;;5093710;28;20065;-62
2023/04/22 10:48:56;;;;;;;4.63;3.67;;;25.40;63.30;;;;;;5093627;28;20039;-61
2023/04/22 10:52:02;;;;;;;7.32;4.60;;;25.40;64.10;;;;;;5093387;28;20059;-62
2023/04/22 10:55:06;;;;;;;4.97;4.10;;;25.50;65.10;;;;;;5093605;28;20043;-62
2023/04/22 10:58:23;;;;;;;4.32;3.40;;;25.50;64.50;;;;;;5093556;28;20050;-62
2023/04/22 11:01:27;;;;;;;8.13;4.18;;;25.50;64.70;;;;;;5093525;28;20494;-61
2023/04/22 11:04:32;;;;;;;8.40;4.05;;;25.50;65.10;;;;;;5093772;28;20051;-62
2023/04/22 11:07:36;;;;;;;5.05;3.67;;;25.50;64.10;;;;;;5093348;28;20043;-62
2023/04/22 11:10:47;;;;;;;5.78;4.07;;;25.50;64.00;;;;;;5092470;28;20073;-62
2023/04/22 11:13:51;;;;;;;4.90;3.70;;;25.50;63.30;;;;;;5093293;28;20126;-62
2023/04/22 11:16:55;;;;;;;5.53;3.72;;;25.50;64.00;;;;;;5093176;28;20043;-61
2023/04/22 11:20:00;;;;;;;4.68;3.47;;;25.50;64.70;;;;;;5093401;28;20059;-62
2023/04/22 11:23:04;;;;;;;7.75;3.40;;;25.50;64.00;;;;;;5092993;28;20043;-61
2023/04/22 11:26:08;;;;;;;6.72;4.55;;;25.50;64.00;;;;;;5092771;28;20055;-61
2023/04/22 11:29:12;;;;;;;5.60;3.95;;;25.30;66.80;;;;;;5092872;28;20110;-61
2023/04/22 11:32:16;;;;;;;9.02;4.72;;;25.20;68.00;;;;;;5093191;28;20078;-62
2023/04/22 11:35:21;;;;;;;15.07;6.00;;;25.20;68.30;;;;;;5093213;28;20055;-61
2023/04/22 11:38:25;;;;;;;10.85;5.63;;;25.20;68.10;;;;;;5092965;28;20399;-61
2023/04/22 11:41:30;;;;;;;6.68;4.63;;;25.20;69.10;;;;;;5092982;28;20047;-60
2023/04/22 11:44:33;;;;;;;8.70;5.70;;;25.20;69.30;;;;;;5092829;28;20047;-61
2023/04/22 11:47:38;;;;;;;10.57;5.00;;;25.20;68.40;;;;;;5092789;28;20046;-60
2023/04/22 11:50:43;;;;;;;9.43;4.72;;;25.20;68.50;;;;;;5092810;28;20510;-61
2023/04/22 11:53:51;;;;;;;9.40;4.75;;;25.10;67.40;;;;;;5092685;28;20407;-61
2023/04/22 11:56:54;;;;;;;7.32;4.53;;;25.10;67.80;;;;;;5092891;28;20047;-61
2023/04/22 11:59:58;;;;;;;8.57;4.75;;;25.10;67.40;;;;;;5092616;28;20046;-61
2023/04/22 12:03:11;;;;;;;8.02;4.70;;;25.10;67.20;;;;;;5092631;28;20039;-61
2023/04/22 12:06:15;;;;;;;7.78;4.90;;;25.10;68.50;;;;;;5092708;28;20051;-61
2023/04/22 12:09:23;;;;;;;8.05;4.10;;;25.10;67.90;;;;;;5092739;28;20043;-61
2023/04/22 12:12:27;;;;;;;5.95;3.50;;;25.00;66.90;;;;;;5092400;28;20067;-61
2023/04/22 12:15:41;;;;;;;4.85;3.47;;;25.00;67.90;;;;;;5092505;28;20395;-61
2023/04/22 12:18:50;;;;;;;6.63;4.00;;;25.00;68.80;;;;;;5092136;28;20502;-61
2023/04/22 12:21:57;;;;;;;8.85;3.85;;;25.10;68.20;;;;;;5092496;28;20042;-74
2023/04/22 12:25:01;;;;;;;6.10;3.78;;;25.10;67.80;;;;;;5091777;28;20079;-75
2023/04/22 12:28:06;;;;;;;8.48;3.85;;;25.10;68.00;;;;;;5092225;28;20043;-75
2023/04/22 12:31:10;;;;;;;9.07;4.43;;;25.10;67.40;;;;;;5092369;28;20055;-75
2023/04/22 12:34:14;;;;;;;7.65;3.67;;;25.10;67.00;;;;;;5092156;28;20655;-76
2023/04/22 12:37:18;;;;;;;11.60;4.82;;;25.00;66.70;;;;;;5092003;28;20059;-74
2023/04/22 12:40:22;;;;;;;4.93;3.47;;;25.00;67.60;;;;;;5092072;28;20047;-75
2023/04/22 12:43:26;;;;;;;7.00;3.85;;;25.00;68.10;;;;;;5092067;28;20043;-75
2023/04/22 12:46:30;;;;;;;6.93;4.82;;;25.00;69.00;;;;;;5092057;28;20039;-74
2023/04/22 12:49:35;;;;;;;6.70;3.70;;;24.90;68.10;;;;;;5091861;28;20490;-74
2023/04/22 12:52:39;;;;;;;6.88;4.07;;;24.80;68.30;;;;;;5091483;28;20059;-75
2023/04/22 12:55:43;;;;;;;6.60;4.50;;;24.80;68.50;;;;;;5091769;28;20507;-75
2023/04/22 12:58:47;;;;;;;5.93;4.30;;;24.70;68.50;;;;;;5091771;28;20062;-74
2023/04/22 13:01:51;;;;;;;13.95;4.47;;;24.60;69.10;;;;;;5091795;28;20047;-76
2023/04/22 13:04:55;;;;;;;8.48;4.60;;;24.50;69.30;;;;;;5091696;28;20043;-74
2023/04/22 13:07:59;;;;;;;6.82;3.80;;;24.50;69.10;;;;;;5091466;28;20055;-75
2023/04/22 13:11:03;;;;;;;13.00;5.90;;;24.40;68.90;;;;;;5091682;28;20047;-75
2023/04/22 13:14:07;;;;;;;7.22;4.43;;;24.30;69.60;;;;;;5091534;28;20059;-75
2023/04/22 13:17:11;;;;;;;12.05;5.07;;;24.30;71.00;;;;;;5091488;28;20043;-75
2023/04/22 13:20:16;;;;;;;8.23;4.50;;;24.20;70.40;;;;;;5091278;28;20062;-75
2023/04/22 13:23:20;;;;;;;10.85;5.28;;;24.20;70.70;;;;;;5090416;28;20051;-74
2023/04/22 13:26:24;;;;;;;6.38;4.57;;;24.10;71.20;;;;;;5091081;28;20059;-75
2023/04/22 13:29:28;;;;;;;8.88;4.93;;;23.90;70.30;;;;;;5091094;28;20035;-75
2023/04/22 13:32:33;;;;;;;7.88;5.95;;;23.90;71.20;;;;;;5091140;28;20067;-76
2023/04/22 13:35:37;;;;;;;10.40;5.43;;;23.80;71.80;;;;;;5091130;28;20047;-75
2023/04/22 13:38:42;;;;;;;14.63;5.90;;;23.70;72.10;;;;;;5090944;28;20051;-75
2023/04/22 13:41:45;;;;;;;6.20;4.40;;;23.60;72.00;;;;;;5091042;28;20518;-75
2023/04/22 13:44:49;;;;;;;9.02;5.38;;;23.60;72.50;;;;;;5091024;28;20051;-75
2023/04/22 13:47:53;;;;;;;9.30;4.60;;;23.60;72.60;;;;;;5091055;28;20391;-75
2023/04/22 13:50:57;;;;;;;6.28;4.85;;;23.60;73.10;;;;;;5090750;28;20035;-75
2023/04/22 13:54:02;;;;;;;7.20;5.00;;;23.60;72.50;;;;;;5090774;28;20063;-74
2023/04/22 13:57:06;;;;;;;12.48;5.30;;;23.60;71.90;;;;;;5090968;28;20505;-74
2023/04/22 14:00:11;;;;;;;10.43;5.15;;;23.50;71.60;;;;;;5090937;28;20054;-74
2023/04/22 14:03:18;;;;;;;8.63;4.97;;;23.50;71.90;;;;;;5090553;28;20043;-74
2023/04/22 14:06:22;;;;;;;9.05;5.75;;;23.40;72.00;;;;;;5090618;28;20043;-74
2023/04/22 14:09:26;;;;;;;8.95;5.65;;;23.40;71.80;;;;;;5091064;28;20047;-75
2023/04/22 14:12:30;;;;;;;8.13;5.25;;;23.30;71.70;;;;;;5090688;28;20047;-73
2023/04/22 14:15:34;;;;;;;10.23;4.68;;;23.30;71.70;;;;;;5090798;28;20044;-74
2023/04/22 14:18:39;;;;;;;9.98;4.90;;;23.30;71.70;;;;;;5090666;28;20043;-73
2023/04/22 14:21:43;;;;;;;9.68;5.32;;;23.30;72.30;;;;;;5090737;28;20047;-74
2023/04/22 14:24:47;;;;;;;10.55;5.47;;;23.30;72.60;;;;;;5090574;28;20063;-76
2023/04/22 14:27:51;;;;;;;7.13;5.13;;;23.30;72.90;;;;;;5090943;28;20055;-75
2023/04/22 14:30:55;;;;;;;8.63;5.00;;;23.20;73.10;;;;;;5090082;28;20043;-74
2023/04/22 14:33:59;;;;;;;7.93;5.10;;;23.20;73.10;;;;;;5090484;28;20055;-74
2023/04/22 14:37:04;;;;;;;8.98;5.22;;;23.30;73.70;;;;;;5090573;28;20043;-75
2023/04/22 14:40:08;;;;;;;7.78;5.32;;;23.30;73.10;;;;;;5090415;28;20043;-75
2023/04/22 14:43:13;;;;;;;10.55;6.20;;;23.30;73.50;;;;;;5090327;28;20039;-75
2023/04/22 14:46:17;;;;;;;6.40;4.57;;;23.40;73.20;;;;;;5092251;28;20520;-73
2023/04/22 14:49:21;;;;;;;9.52;5.22;;;23.40;73.10;;;;;;5093840;28;20043;-74
2023/04/22 14:52:25;;;;;;;10.77;5.70;;;23.40;73.50;;;;;;5093714;28;20047;-74
2023/04/22 14:55:30;;;;;;;8.00;5.25;;;23.40;73.20;;;;;;5093771;28;20047;-74
2023/04/22 14:58:34;;;;;;;8.70;5.30;;;23.30;73.30;;;;;;5093865;28;20066;-74
2023/04/22 15:01:40;;;;;;;9.80;5.55;;;23.30;73.80;;;;;;5093628;28;20047;-74
2023/04/22 15:04:44;;;;;;;14.85;6.00;;;23.20;74.30;;;;;;5093434;28;20047;-74
2023/04/22 15:07:52;;;;;;;11.38;5.43;;;23.10;74.30;;;;;;5093299;28;20039;-75
2023/04/22 15:10:58;;;;;;;8.82;4.75;;;23.00;75.40;;;;;;5093537;28;20043;-74
2023/04/22 15:14:02;;;;;;;10.07;6.00;;;23.00;75.70;;;;;;5093299;28;20051;-74
2023/04/22 15:17:06;;;;;;;6.07;5.32;;;23.00;75.00;;;;;;5093639;28;20047;-74
2023/04/22 15:20:12;;;;;;;10.43;5.60;;;23.00;75.10;;;;;;5093383;28;20047;-73
2023/04/22 15:23:16;;;;;;;10.95;5.78;;;22.90;75.10;;;;;;5092814;28;20051;-74
2023/04/22 15:26:20;;;;;;;21.08;5.82;;;22.90;75.80;;;;;;5092749;28;20415;-74
2023/04/22 15:29:24;;;;;;;10.48;5.35;;;22.90;76.40;;;;;;5092975;28;20051;-74
2023/04/22 15:32:28;;;;;;;7.25;4.82;;;22.90;76.60;;;;;;5092966;28;20047;-74
2023/04/22 15:35:32;;;;;;;7.57;5.28;;;22.90;76.20;;;;;;5092799;28;20043;-76
2023/04/22 15:38:37;;;;;;;11.23;5.53;;;22.90;76.30;;;;;;5093221;28;20039;-74
2023/04/22 15:41:42;;;;;;;6.07;4.72;;;22.90;76.50;;;;;;5092892;28;20043;-74
2023/04/22 15:44:46;;;;;;;15.88;7.45;;;22.90;76.50;;;;;;5092119;28;20051;-76
2023/04/22 15:47:51;;;;;;;9.73;4.93;;;22.90;76.10;;;;;;5093079;28;20047;-75
2023/04/22 15:50:54;;;;;;;11.20;5.38;;;22.80;75.70;;;;;;5092767;28;20040;-75
2023/04/22 15:53:58;;;;;;;8.43;4.68;;;22.80;75.80;;;;;;5092474;28;20633;-75
2023/04/22 15:57:02;;;;;;;8.77;4.90;;;22.80;76.40;;;;;;5091636;28;20471;-73
2023/04/22 16:00:09;;;;;;;9.70;5.43;;;22.80;76.60;;;;;;5092669;28;20039;-75
2023/04/22 16:03:20;;;;;;;9.18;4.55;;;22.80;76.50;;;;;;5092235;28;20047;-75
2023/04/22 16:06:24;;;;;;;8.40;4.78;;;22.80;76.90;;;;;;5092176;28;20046;-75